TAF AMD EDLV 190420Z 1904/1924 20006KT 9999 SCT030
TEMPO 1904/1909 SHRA BKN011CB
BECMG 1911/1914 26006KT
BECMG 1917/1920 VRB03KT
From batch tds/tafs/production/2023/3/19/h04_m36_tafs.cache.xml
Issued (12 months ago)
Forecasts
1904/1911 20006KT P6SM SCT3000

---
fcst_time_to: '2023-03-19T11:00:00Z'
sky_condition:
- sky_cover: SCT
  cloud_base_ft_agl: '3000'
wind_speed_kt: '6'
fcst_time_from: '2023-03-19T04:00:00Z'
wind_dir_degrees: '200'
visibility_statute_mi: '6.21'

TEMPO 1904/1909 BKNCB1100

---
wx_string: SHRA
fcst_time_to: '2023-03-19T09:00:00Z'
sky_condition:
- sky_cover: BKN
  cloud_type: CB
  cloud_base_ft_agl: '1100'
fcst_time_from: '2023-03-19T04:00:00Z'
change_indicator: TEMPO

BECMG 1914/1917 26006KT P6SM SCT3000

---
fcst_time_to: '2023-03-19T17:00:00Z'
sky_condition:
- sky_cover: SCT
  cloud_base_ft_agl: '3000'
time_becoming: '2023-03-19T14:00:00Z'
wind_speed_kt: '6'
fcst_time_from: '2023-03-19T11:00:00Z'
change_indicator: BECMG
wind_dir_degrees: '260'
visibility_statute_mi: '6.21'

BECMG 1920/2000 VRB03KT P6SM SCT3000

---
fcst_time_to: '2023-03-20T00:00:00Z'
sky_condition:
- sky_cover: SCT
  cloud_base_ft_agl: '3000'
time_becoming: '2023-03-19T20:00:00Z'
wind_speed_kt: '3'
fcst_time_from: '2023-03-19T17:00:00Z'
change_indicator: BECMG
wind_dir_degrees: '0'
visibility_statute_mi: '6.21'

talk